KALS

San Luis Valley Regional Airport

Airport
ICAO code
KALS
Summary
ICAO Region
NAM
ICAO Territory
Location

Alamosa, Colorado,

Coordinates
37° 26' 31" N , 105° 51' 54" W
KCC
Airport CFIT
Altimeter Temperature Error Correction
Airport RE
Hot and High Operations
Airport WX
Mountain Waves
Metar
KALS 142152Z AUTO 12013G20KT 10SM FEW018 15/11 A3031 RMK AO2 SLP193 T01500106

Description

San Luis Valley Regional Airport, also known as Bergman Field, is a public use airport located 4 km south of the central business district of Alamosa, a city in Alamosa County, Colorado.

Climatology

Semi-arid Steppe climate (Köppen climate classification BSk) - Little precipitation, hot summers and cold winters, sometimes with large changes in temperature in a 24 hour period.

Airport map

Aerial View

SKYbrary Partners:

Safety knowledge contributed by: